createdAt,value
2019-02-26T00:01:28.698Z,33.20
2019-02-26T00:03:59.065Z,32.10
2019-02-26T00:06:30.263Z,35.33
2019-02-26T00:09:01.831Z,33.50
2019-02-26T00:11:33.310Z,32.58
2019-02-26T00:14:04.462Z,33.18
2019-02-26T00:16:37.670Z,32.42
2019-02-26T00:19:07.519Z,33.08
2019-02-26T00:21:38.420Z,31.40
2019-02-26T00:24:10.015Z,29.15
2019-02-26T00:26:40.761Z,33.85
2019-02-26T00:29:10.276Z,36.00
2019-02-26T00:31:39.760Z,31.97
2019-02-26T00:34:10.820Z,34.90
2019-02-26T00:36:40.580Z,32.63
2019-02-26T00:39:10.190Z,33.50
2019-02-26T00:41:40.454Z,32.88
2019-02-26T00:44:10.042Z,33.88
2019-02-26T00:46:39.650Z,35.13
2019-02-26T00:49:10.051Z,32.42
2019-02-26T00:51:44.308Z,32.25
2019-02-26T00:54:11.749Z,32.17
2019-02-26T00:56:41.231Z,40.50
2019-02-26T00:59:10.779Z,31.37
2019-02-26T01:01:44.114Z,30.70
2019-02-26T01:04:12.426Z,32.73
2019-02-26T01:06:41.956Z,32.85
2019-02-26T01:09:13.230Z,28.10
2019-02-26T01:11:43.384Z,32.67
2019-02-26T01:14:15.653Z,30.40
2019-02-26T01:16:46.136Z,31.20
2019-02-26T01:19:17.536Z,32.48
2019-02-26T01:21:47.288Z,31.85
2019-02-26T01:24:16.753Z,31.20
2019-02-26T01:26:46.156Z,31.02
2019-02-26T01:29:18.570Z,32.67
2019-02-26T01:31:46.704Z,30.35
2019-02-26T01:34:17.984Z,31.83
2019-02-26T01:36:49.481Z,31.00
2019-02-26T01:39:19.221Z,31.68
2019-02-26T01:41:51.186Z,30.82
2019-02-26T01:44:20.759Z,32.30
2019-02-26T01:46:50.219Z,33.58
2019-02-26T01:49:21.485Z,32.15
2019-02-26T01:51:51.783Z,30.25
2019-02-26T01:54:21.961Z,30.65
2019-02-26T01:56:53.397Z,31.50
2019-02-26T01:59:22.519Z,31.03
2019-02-26T02:01:53.683Z,32.83
2019-02-26T02:04:23.113Z,32.47
2019-02-26T02:06:54.890Z,34.43
2019-02-26T02:09:25.138Z,32.00
2019-02-26T02:11:57.358Z,31.75
2019-02-26T02:14:25.843Z,32.55
2019-02-26T02:16:55.775Z,32.93
2019-02-26T02:19:27.141Z,33.90
2019-02-26T02:21:58.201Z,30.88
2019-02-26T02:24:27.481Z,31.97
2019-02-26T02:26:58.591Z,30.65
2019-02-26T02:29:28.633Z,31.97
2019-02-26T02:31:59.536Z,32.20
2019-02-26T02:34:30.203Z,32.50
2019-02-26T02:37:00.473Z,31.12
2019-02-26T02:39:29.929Z,32.93
2019-02-26T02:41:59.512Z,31.67
2019-02-26T02:44:28.969Z,33.95
2019-02-26T02:46:59.179Z,28.37
2019-02-26T02:49:32.098Z,30.88
2019-02-26T02:52:01.446Z,34.25
2019-02-26T02:54:31.719Z,32.42
2019-02-26T02:57:02.502Z,33.23
2019-02-26T02:59:34.045Z,33.50
2019-02-26T03:02:04.520Z,37.23
2019-02-26T03:04:34.838Z,32.42
2019-02-26T03:07:04.564Z,31.82
2019-02-26T03:09:37.751Z,33.60
2019-02-26T03:12:06.139Z,32.15
2019-02-26T03:14:38.903Z,35.00
2019-02-26T03:17:09.177Z,32.95
2019-02-26T03:19:41.518Z,30.05
2019-02-26T03:22:12.693Z,30.60
2019-02-26T03:24:41.290Z,31.52
2019-02-26T03:27:10.712Z,30.32
2019-02-26T03:29:40.162Z,28.50
2019-02-26T03:32:09.618Z,29.32
2019-02-26T03:34:39.387Z,33.73
2019-02-26T03:37:10.943Z,30.40
2019-02-26T03:39:39.967Z,30.17
2019-02-26T03:42:10.571Z,29.98
2019-02-26T03:44:40.630Z,31.95
2019-02-26T03:47:10.228Z,32.10
2019-02-26T03:49:41.851Z,34.53
2019-02-26T03:52:15.318Z,34.20
2019-02-26T03:54:43.611Z,33.98
2019-02-26T03:57:14.775Z,31.55
2019-02-26T03:59:45.309Z,32.60
2019-02-26T04:02:17.041Z,31.52
2019-02-26T04:04:51.740Z,31.93
2019-02-26T04:07:17.447Z,30.57
2019-02-26T04:09:49.802Z,33.05
2019-02-26T04:12:18.934Z,33.35
2019-02-26T04:14:49.343Z,29.50
2019-02-26T04:17:23.126Z,33.63
2019-02-26T04:19:50.188Z,30.75
2019-02-26T04:22:27.154Z,32.83
2019-02-26T04:25:03.859Z,33.58
2019-02-26T04:27:44.067Z,33.92
2019-02-26T04:30:36.618Z,29.72
2019-02-26T04:33:27.313Z,35.25
2019-02-26T04:36:11.583Z,33.23
2019-02-26T04:39:01.703Z,33.10
2019-02-26T04:41:36.055Z,32.45
2019-02-26T04:44:34.240Z,33.88
2019-02-26T04:47:05.927Z,32.35
2019-02-26T04:49:38.387Z,31.15
2019-02-26T04:52:08.570Z,33.40
2019-02-26T04:54:39.515Z,33.25
2019-02-26T04:57:09.294Z,33.20
2019-02-26T04:59:41.315Z,32.58
2019-02-26T05:02:09.826Z,38.45
2019-02-26T05:04:40.121Z,30.75
2019-02-26T05:07:13.440Z,34.65
2019-02-26T05:09:42.350Z,30.88
2019-02-26T05:12:11.756Z,33.38
2019-02-26T05:14:41.213Z,31.45
2019-02-26T05:17:10.637Z,34.80
2019-02-26T05:19:42.427Z,35.30
2019-02-26T05:22:11.217Z,33.35
2019-02-26T05:24:43.783Z,32.88
2019-02-26T05:27:18.656Z,29.15
2019-02-26T05:29:49.032Z,33.92
2019-02-26T05:32:18.699Z,34.18
2019-02-26T05:34:50.781Z,36.25
2019-02-26T05:37:19.400Z,36.38
2019-02-26T05:39:51.820Z,32.85
2019-02-26T05:42:20.069Z,37.95
2019-02-26T05:44:53.856Z,33.38
2019-02-26T05:47:23.522Z,37.45
2019-02-26T05:49:52.320Z,36.77
2019-02-26T05:52:24.098Z,33.45
2019-02-26T05:54:52.888Z,33.75
2019-02-26T05:57:27.672Z,34.43
2019-02-26T05:59:53.537Z,33.25
2019-02-26T06:02:24.595Z,36.00
2019-02-26T06:04:54.157Z,33.80
2019-02-26T06:07:26.984Z,35.08
2019-02-26T06:09:56.422Z,35.83
2019-02-26T06:12:26.071Z,38.85
2019-02-26T06:15:00.261Z,32.88
2019-02-26T06:17:26.694Z,36.63
2019-02-26T06:20:01.814Z,36.45
2019-02-26T06:22:31.850Z,36.08
2019-02-26T06:25:06.955Z,36.65
2019-02-26T06:27:32.536Z,36.40
2019-02-26T06:30:05.903Z,36.13
2019-02-26T06:32:35.220Z,34.45
2019-02-26T06:35:08.513Z,39.08
2019-02-26T06:37:40.259Z,35.88
2019-02-26T06:40:12.076Z,35.10
2019-02-26T06:42:41.577Z,38.88
2019-02-26T06:45:16.408Z,35.85
2019-02-26T06:47:48.467Z,37.23
2019-02-26T06:50:18.850Z,38.45
2019-02-26T06:52:50.782Z,60.28
2019-02-26T06:55:20.467Z,50.83
2019-02-26T06:57:52.652Z,44.85
2019-02-26T07:00:23.897Z,41.93
2019-02-26T07:02:52.288Z,40.88
2019-02-26T07:05:23.848Z,40.98
2019-02-26T07:07:55.871Z,38.75
2019-02-26T07:10:26.218Z,38.00
2019-02-26T07:12:55.211Z,35.50
2019-02-26T07:15:28.759Z,35.45
2019-02-26T07:18:00.058Z,34.78
2019-02-26T07:20:33.885Z,35.80
2019-02-26T07:22:58.936Z,37.28
2019-02-26T07:25:28.377Z,35.63
2019-02-26T07:27:58.926Z,38.28
2019-02-26T07:30:29.158Z,36.35
2019-02-26T07:33:03.464Z,36.42
2019-02-26T07:35:35.163Z,37.45
2019-02-26T07:38:05.371Z,34.75
2019-02-26T07:40:35.913Z,39.00
2019-02-26T07:43:09.138Z,37.70
2019-02-26T07:45:37.146Z,39.40
2019-02-26T07:48:06.563Z,36.15
2019-02-26T07:50:38.247Z,33.58
2019-02-26T07:53:07.121Z,32.67
2019-02-26T07:55:38.186Z,32.83
2019-02-26T07:58:09.329Z,32.88
2019-02-26T08:00:40.302Z,39.18
2019-02-26T08:03:10.214Z,36.45
2019-02-26T08:05:39.660Z,34.15
2019-02-26T08:08:10.175Z,36.54
2019-02-26T08:10:42.820Z,28.73
2019-02-26T08:13:12.030Z,32.73
2019-02-26T08:15:41.570Z,34.33
2019-02-26T08:18:11.110Z,32.93
2019-02-26T08:20:40.564Z,34.67
2019-02-26T08:23:10.033Z,33.10
2019-02-26T08:25:39.459Z,32.42
2019-02-26T08:28:08.996Z,35.28
2019-02-26T08:30:42.287Z,34.27
2019-02-26T08:33:09.675Z,36.95
2019-02-26T08:35:39.185Z,35.50
2019-02-26T08:38:08.832Z,31.17
2019-02-26T08:40:38.190Z,32.88
2019-02-26T08:43:07.683Z,35.48
2019-02-26T08:45:37.108Z,37.35
2019-02-26T08:48:07.747Z,34.73
2019-02-26T08:50:39.054Z,38.88
2019-02-26T08:53:08.322Z,40.33
2019-02-26T08:55:38.033Z,32.08
2019-02-26T08:58:10.570Z,34.18
2019-02-26T09:00:39.713Z,36.50
2019-02-26T09:03:10.842Z,34.65
2019-02-26T09:05:40.292Z,34.35
2019-02-26T09:08:11.427Z,33.73
2019-02-26T09:10:41.766Z,33.42
2019-02-26T09:13:14.526Z,34.03
2019-02-26T09:15:44.505Z,39.50
2019-02-26T09:18:14.095Z,38.55
2019-02-26T09:20:43.589Z,35.28
2019-02-26T09:23:16.371Z,40.70
2019-02-26T09:25:46.435Z,40.08
2019-02-26T09:28:15.557Z,41.30
2019-02-26T09:30:45.055Z,41.85
2019-02-26T09:33:14.636Z,34.80
2019-02-26T09:35:45.240Z,34.85
2019-02-26T09:38:17.540Z,37.48
2019-02-26T09:40:48.210Z,37.30
2019-02-26T09:43:19.457Z,39.73
2019-02-26T09:45:50.580Z,37.30
2019-02-26T09:48:21.887Z,39.25
2019-02-26T09:50:51.023Z,41.10
2019-02-26T09:53:20.488Z,43.10
2019-02-26T09:55:49.908Z,38.08
2019-02-26T09:58:21.078Z,36.88
2019-02-26T10:00:53.461Z,37.23
2019-02-26T10:03:21.826Z,38.78
2019-02-26T10:05:53.232Z,38.38
2019-02-26T10:08:24.809Z,39.83
2019-02-26T10:10:55.028Z,39.00
2019-02-26T10:13:27.246Z,37.80
2019-02-26T10:15:59.228Z,36.65
2019-02-26T10:18:30.340Z,40.23
2019-02-26T10:20:59.682Z,39.83
2019-02-26T10:23:33.087Z,37.65
2019-02-26T10:26:02.794Z,39.48
2019-02-26T10:28:35.266Z,40.65
2019-02-26T10:31:04.874Z,39.85
2019-02-26T10:33:37.957Z,36.58
2019-02-26T10:36:05.541Z,35.90
2019-02-26T10:38:38.329Z,39.48
2019-02-26T10:41:07.653Z,38.40
2019-02-26T10:43:37.177Z,41.15
2019-02-26T10:46:06.758Z,39.83
2019-02-26T10:48:36.222Z,40.65
2019-02-26T10:51:06.693Z,45.40
2019-02-26T10:53:36.810Z,39.33
2019-02-26T10:56:07.373Z,41.73
2019-02-26T10:58:36.844Z,52.38
2019-02-26T11:01:07.411Z,48.10
2019-02-26T11:03:40.921Z,42.75
2019-02-26T11:06:10.831Z,37.63
2019-02-26T11:08:39.461Z,43.28
2019-02-26T11:11:09.970Z,36.93
2019-02-26T11:13:42.800Z,36.90
2019-02-26T11:16:11.447Z,39.70
2019-02-26T11:18:42.728Z,43.87
2019-02-26T11:21:12.277Z,35.35
2019-02-26T11:23:43.882Z,36.77
2019-02-26T11:26:15.218Z,37.60
2019-02-26T11:28:45.883Z,40.05
2019-02-26T11:31:16.636Z,34.53
2019-02-26T11:33:48.084Z,37.40
2019-02-26T11:36:17.663Z,36.58
2019-02-26T11:38:47.182Z,40.83
2019-02-26T11:41:16.685Z,33.73
2019-02-26T11:43:46.212Z,33.73
2019-02-26T11:46:15.624Z,34.95
2019-02-26T11:48:45.696Z,35.75
2019-02-26T11:51:17.790Z,35.15
2019-02-26T11:53:47.429Z,32.53
2019-02-26T11:56:17.724Z,35.78
2019-02-26T11:58:48.075Z,33.53
2019-02-26T12:01:18.015Z,37.78
2019-02-26T12:03:47.527Z,35.07
2019-02-26T12:06:16.997Z,34.35
2019-02-26T12:08:47.325Z,32.65
2019-02-26T12:11:20.146Z,34.58
2019-02-26T12:13:50.198Z,31.65
2019-02-26T12:16:19.923Z,36.53
2019-02-26T12:18:49.336Z,30.95
2019-02-26T12:21:18.874Z,32.63
2019-02-26T12:23:48.346Z,31.73
2019-02-26T12:26:19.288Z,33.33
2019-02-26T12:28:49.089Z,30.25
2019-02-26T12:31:18.594Z,30.32
2019-02-26T12:33:48.010Z,28.05
2019-02-26T12:36:17.538Z,29.65
2019-02-26T12:38:49.648Z,31.65
2019-02-26T12:41:20.900Z,27.07
2019-02-26T12:43:49.559Z,26.93
2019-02-26T12:46:19.801Z,29.20
2019-02-26T12:48:50.463Z,25.80
2019-02-26T12:51:22.477Z,26.25
2019-02-26T12:53:50.973Z,28.25
2019-02-26T12:56:21.472Z,25.37
2019-02-26T12:58:54.532Z,26.55
2019-02-26T13:01:24.695Z,24.67
2019-02-26T13:03:54.994Z,23.38
2019-02-26T13:06:24.989Z,24.98
2019-02-26T13:08:54.473Z,24.92
2019-02-26T13:11:25.072Z,26.97
2019-02-26T13:13:54.655Z,27.75
2019-02-26T13:16:24.169Z,23.95
2019-02-26T13:18:58.612Z,25.60
2019-02-26T13:21:24.928Z,23.87
2019-02-26T13:23:58.680Z,26.17
2019-02-26T13:26:25.871Z,32.10
2019-02-26T13:28:56.179Z,28.97
2019-02-26T13:31:26.467Z,30.00
2019-02-26T13:33:56.048Z,31.75
2019-02-26T13:36:25.484Z,24.52
2019-02-26T13:38:54.949Z,27.95
2019-02-26T13:41:29.928Z,26.70
2019-02-26T13:43:55.521Z,26.62
2019-02-26T13:46:25.084Z,29.45
2019-02-26T13:48:54.605Z,26.37
2019-02-26T13:51:24.064Z,27.60
2019-02-26T13:53:53.514Z,25.05
2019-02-26T13:56:23.003Z,34.33
2019-02-26T13:58:52.459Z,28.83
2019-02-26T14:01:21.916Z,32.48
2019-02-26T14:03:51.371Z,31.15
2019-02-26T14:06:20.829Z,28.23
2019-02-26T14:08:50.428Z,27.87
2019-02-26T14:11:19.888Z,24.43
2019-02-26T14:13:50.392Z,29.60
2019-02-26T14:16:19.899Z,29.65
2019-02-26T14:18:49.311Z,28.73
2019-02-26T14:21:18.778Z,36.60
2019-02-26T14:23:48.268Z,26.63
2019-02-26T14:26:17.752Z,32.20
2019-02-26T14:28:47.281Z,30.52
2019-02-26T14:31:16.931Z,27.37
2019-02-26T14:33:46.339Z,29.60
2019-02-26T14:36:15.807Z,30.92
2019-02-26T14:38:45.232Z,27.87
2019-02-26T14:41:14.715Z,23.55
2019-02-26T14:43:44.353Z,25.00
2019-02-26T14:46:13.823Z,26.85
2019-02-26T14:48:43.291Z,24.40
2019-02-26T14:51:12.751Z,22.98
2019-02-26T14:53:43.341Z,24.25
2019-02-26T14:56:12.796Z,26.23
2019-02-26T14:58:42.217Z,23.12
2019-02-26T15:01:11.638Z,24.87
2019-02-26T15:03:41.108Z,26.15
2019-02-26T15:06:11.011Z,22.20
2019-02-26T15:08:41.312Z,23.87
2019-02-26T15:11:10.973Z,21.37
2019-02-26T15:13:40.453Z,22.70
2019-02-26T15:16:09.883Z,20.60
2019-02-26T15:18:39.425Z,21.00
2019-02-26T15:21:09.072Z,22.40
2019-02-26T15:23:38.593Z,22.70
2019-02-26T15:26:08.043Z,24.27
2019-02-26T15:28:37.563Z,25.23
2019-02-26T15:31:07.016Z,23.25
2019-02-26T15:33:36.597Z,23.35
2019-02-26T15:36:06.065Z,25.60
2019-02-26T15:38:35.487Z,24.27
2019-02-26T15:41:05.248Z,24.98
2019-02-26T15:43:34.802Z,23.33
2019-02-26T15:46:04.591Z,24.92
2019-02-26T15:48:36.331Z,24.23
2019-02-26T15:51:13.905Z,24.25
2019-02-26T15:53:36.609Z,23.47
2019-02-26T15:56:06.215Z,25.35
2019-02-26T15:58:35.686Z,24.87
2019-02-26T16:01:08.525Z,25.15
2019-02-26T16:03:38.050Z,27.65
2019-02-26T16:06:07.518Z,24.52
2019-02-26T16:08:38.558Z,25.65
2019-02-26T16:11:08.183Z,24.87
2019-02-26T16:13:37.771Z,27.37
2019-02-26T16:16:07.250Z,24.55
2019-02-26T16:18:36.952Z,23.60
2019-02-26T16:21:06.668Z,23.83
2019-02-26T16:23:36.094Z,26.55
2019-02-26T16:26:08.095Z,26.68
2019-02-26T16:28:36.871Z,26.68
2019-02-26T16:31:06.344Z,27.55
2019-02-26T16:33:36.083Z,27.55
2019-02-26T16:36:05.654Z,26.15
2019-02-26T16:38:35.331Z,25.20
2019-02-26T16:41:05.571Z,26.37
2019-02-26T16:43:35.284Z,28.27
2019-02-26T16:46:08.283Z,35.43
2019-02-26T16:48:36.270Z,22.17
2019-02-26T16:51:06.017Z,27.87
2019-02-26T16:53:35.444Z,28.35
2019-02-26T16:56:04.905Z,26.77
2019-02-26T16:58:35.566Z,32.20
2019-02-26T17:01:07.749Z,26.87
2019-02-26T17:03:37.337Z,28.50
2019-02-26T17:06:08.477Z,31.40
2019-02-26T17:08:38.318Z,33.55
2019-02-26T17:11:07.845Z,31.75
2019-02-26T17:13:37.771Z,30.82
2019-02-26T17:16:07.359Z,32.90
2019-02-26T17:18:36.938Z,30.72
2019-02-26T17:21:08.212Z,32.58
2019-02-26T17:23:38.153Z,27.30
2019-02-26T17:26:07.910Z,34.00
2019-02-26T17:28:37.535Z,30.27
2019-02-26T17:31:07.368Z,37.15
2019-02-26T17:33:36.802Z,34.48
2019-02-26T17:36:06.570Z,32.73
2019-02-26T17:38:35.996Z,35.63
2019-02-26T17:41:05.633Z,31.17
2019-02-26T17:43:35.275Z,29.85
2019-02-26T17:46:05.022Z,28.65
2019-02-26T17:48:43.276Z,31.07
2019-02-26T17:51:05.980Z,32.30
2019-02-26T17:53:35.453Z,34.50
2019-02-26T17:56:05.011Z,32.33
2019-02-26T17:58:34.507Z,28.05
2019-02-26T18:01:04.975Z,32.25
2019-02-26T18:03:35.393Z,32.42
2019-02-26T18:06:04.937Z,33.38
2019-02-26T18:08:34.826Z,32.60
2019-02-26T18:11:04.686Z,34.20
2019-02-26T18:13:34.615Z,32.25
2019-02-26T18:16:09.062Z,34.05
2019-02-26T18:18:35.909Z,31.60
2019-02-26T18:21:06.537Z,32.00
2019-02-26T18:23:37.736Z,30.65
2019-02-26T18:26:07.417Z,32.63
2019-02-26T18:28:36.956Z,31.05
2019-02-26T18:31:06.481Z,34.43
2019-02-26T18:33:36.330Z,32.15
2019-02-26T18:36:05.942Z,35.43
2019-02-26T18:38:35.543Z,32.63
2019-02-26T18:41:05.056Z,29.95
2019-02-26T18:43:34.583Z,35.43
2019-02-26T18:46:05.197Z,36.25
2019-02-26T18:48:34.795Z,35.28
2019-02-26T18:51:04.336Z,38.48
2019-02-26T18:53:33.757Z,37.67
2019-02-26T18:56:04.913Z,37.38
2019-02-26T18:58:34.870Z,34.73
2019-02-26T19:01:04.486Z,34.80
2019-02-26T19:03:34.591Z,35.28
2019-02-26T19:06:04.543Z,34.70
2019-02-26T19:08:34.719Z,37.35
2019-02-26T19:11:04.605Z,33.28
2019-02-26T19:13:35.599Z,35.55
2019-02-26T19:16:05.466Z,40.35
2019-02-26T19:18:36.581Z,45.85
2019-02-26T19:21:06.878Z,42.88
2019-02-26T19:23:36.530Z,44.55
2019-02-26T19:26:05.996Z,36.50
2019-02-26T19:28:35.467Z,43.13
2019-02-26T19:31:09.586Z,43.63
2019-02-26T19:33:38.979Z,40.52
2019-02-26T19:36:10.622Z,41.15
2019-02-26T19:38:39.664Z,43.80
2019-02-26T19:41:14.902Z,40.30
2019-02-26T19:43:44.411Z,41.70
2019-02-26T19:46:16.903Z,41.13
2019-02-26T19:48:45.174Z,41.60
2019-02-26T19:51:14.622Z,38.33
2019-02-26T19:53:44.104Z,40.45
2019-02-26T19:56:13.564Z,39.03
2019-02-26T19:58:43.080Z,43.38
2019-02-26T20:01:12.639Z,40.65
2019-02-26T20:03:42.153Z,43.58
2019-02-26T20:06:11.588Z,40.95
2019-02-26T20:08:41.163Z,42.23
2019-02-26T20:11:10.662Z,41.90
2019-02-26T20:13:42.198Z,43.55
2019-02-26T20:16:13.406Z,40.93
2019-02-26T20:18:42.889Z,44.30
2019-02-26T20:21:12.295Z,37.60
2019-02-26T20:23:42.472Z,42.25
2019-02-26T20:26:16.177Z,43.40
2019-02-26T20:28:43.244Z,43.02
2019-02-26T20:31:12.817Z,43.87
2019-02-26T20:33:42.218Z,40.25
2019-02-26T20:36:11.718Z,40.90
2019-02-26T20:38:41.296Z,42.80
2019-02-26T20:41:10.787Z,42.30
2019-02-26T20:43:40.255Z,43.75
2019-02-26T20:46:09.776Z,39.18
2019-02-26T20:48:39.266Z,43.33
2019-02-26T20:51:08.708Z,37.17
2019-02-26T20:53:38.895Z,37.90
2019-02-26T20:56:09.064Z,41.98
2019-02-26T20:58:38.537Z,40.95
2019-02-26T21:01:08.039Z,44.10
2019-02-26T21:03:37.520Z,43.70
2019-02-26T21:06:06.948Z,39.40
2019-02-26T21:08:36.426Z,42.53
2019-02-26T21:11:05.972Z,45.28
2019-02-26T21:13:35.542Z,50.67
2019-02-26T21:16:05.061Z,42.95
2019-02-26T21:18:34.608Z,44.75
2019-02-26T21:21:04.146Z,42.17
2019-02-26T21:23:33.587Z,47.58
2019-02-26T21:26:03.019Z,45.58
2019-02-26T21:28:33.759Z,45.73
2019-02-26T21:31:04.362Z,48.90
2019-02-26T21:33:34.217Z,42.35
2019-02-26T21:36:04.607Z,46.58
2019-02-26T21:38:34.064Z,47.05
2019-02-26T21:41:05.526Z,42.84
2019-02-26T21:43:35.595Z,42.17
2019-02-26T21:46:05.577Z,44.50
2019-02-26T21:48:36.723Z,43.60
2019-02-26T21:51:06.896Z,42.13
2019-02-26T21:53:37.462Z,42.25
2019-02-26T21:56:07.157Z,41.05
2019-02-26T21:58:36.628Z,40.80
2019-02-26T22:01:06.101Z,44.30
2019-02-26T22:03:35.528Z,42.17
2019-02-26T22:06:05.719Z,39.23
2019-02-26T22:08:35.231Z,40.60
2019-02-26T22:11:04.816Z,37.73
2019-02-26T22:13:34.364Z,36.90
2019-02-26T22:16:04.483Z,38.17
2019-02-26T22:18:34.365Z,36.42
2019-02-26T22:21:04.522Z,37.23
2019-02-26T22:23:34.835Z,36.53
2019-02-26T22:26:05.426Z,38.73
2019-02-26T22:28:34.843Z,35.75
2019-02-26T22:31:04.994Z,36.94
2019-02-26T22:33:34.557Z,35.28
2019-02-26T22:36:04.986Z,35.10
2019-02-26T22:38:34.468Z,33.65
2019-02-26T22:41:03.932Z,35.33
2019-02-26T22:43:33.356Z,34.63
2019-02-26T22:46:02.813Z,34.30
2019-02-26T22:48:33.262Z,33.73
2019-02-26T22:51:02.734Z,33.92
2019-02-26T22:53:36.389Z,35.23
2019-02-26T22:56:04.516Z,33.25
2019-02-26T22:58:35.853Z,33.08
2019-02-26T23:01:12.619Z,33.92
2019-02-26T23:03:46.049Z,34.80
2019-02-26T23:06:15.274Z,36.23
2019-02-26T23:08:45.379Z,34.38
2019-02-26T23:11:15.530Z,30.85
2019-02-26T23:13:45.653Z,34.33
2019-02-26T23:16:17.991Z,35.70
2019-02-26T23:18:46.722Z,33.92
2019-02-26T23:21:16.995Z,33.73
2019-02-26T23:23:47.111Z,34.85
2019-02-26T23:26:16.644Z,34.85
2019-02-26T23:28:46.191Z,32.75
2019-02-26T23:31:18.054Z,31.17
2019-02-26T23:33:48.426Z,35.48
2019-02-26T23:36:19.861Z,33.45
2019-02-26T23:38:49.342Z,32.17
2019-02-26T23:41:18.994Z,32.50
2019-02-26T23:43:48.519Z,31.27
2019-02-26T23:46:18.091Z,34.98
2019-02-26T23:48:47.608Z,33.48
2019-02-26T23:51:20.129Z,31.97
2019-02-26T23:53:49.222Z,33.18
2019-02-26T23:56:19.135Z,32.78
2019-02-26T23:58:49.252Z,33.67
